sensor_id;sensor_type;location;lat;lon;timestamp;temperature;humidity
10175;DHT22;18221;38.704;0.152;2023-02-11T00:15:25;8.40;99.90
10175;DHT22;18221;38.704;0.152;2023-02-11T00:17:53;8.40;99.90
10175;DHT22;18221;38.704;0.152;2023-02-11T00:20:21;8.40;99.90
10175;DHT22;18221;38.704;0.152;2023-02-11T00:22:50;8.30;99.90
10175;DHT22;18221;38.704;0.152;2023-02-11T00:25:18;8.30;99.90
10175;DHT22;18221;38.704;0.152;2023-02-11T00:27:46;8.20;99.90
10175;DHT22;18221;38.704;0.152;2023-02-11T00:30:14;8.20;99.90
10175;DHT22;18221;38.704;0.152;2023-02-11T00:32:44;8.20;99.90
10175;DHT22;18221;38.704;0.152;2023-02-11T00:35:12;8.20;99.90
10175;DHT22;18221;38.704;0.152;2023-02-11T00:37:41;8.10;99.90
10175;DHT22;18221;38.704;0.152;2023-02-11T00:40:10;8.10;99.90
10175;DHT22;18221;38.704;0.152;2023-02-11T00:42:41;8.20;99.90
10175;DHT22;18221;38.704;0.152;2023-02-11T00:45:09;8.20;99.90
10175;DHT22;18221;38.704;0.152;2023-02-11T00:47:37;8.20;99.90
10175;DHT22;18221;38.704;0.152;2023-02-11T00:50:08;8.10;99.90
10175;DHT22;18221;38.704;0.152;2023-02-11T00:52:36;8.20;99.90
10175;DHT22;18221;38.704;0.152;2023-02-11T00:55:04;8.20;99.90
10175;DHT22;18221;38.704;0.152;2023-02-11T00:57:33;8.20;99.90
10175;DHT22;18221;38.704;0.152;2023-02-11T01:00:02;8.20;99.90
10175;DHT22;18221;38.704;0.152;2023-02-11T01:02:31;8.20;99.90
10175;DHT22;18221;38.704;0.152;2023-02-11T01:04:59;8.10;99.90
10175;DHT22;18221;38.704;0.152;2023-02-11T01:07:29;8.10;99.90
10175;DHT22;18221;38.704;0.152;2023-02-11T01:09:57;8.10;99.90
10175;DHT22;18221;38.704;0.152;2023-02-11T01:12:26;8.10;99.90
10175;DHT22;18221;38.704;0.152;2023-02-11T01:14:54;8.10;99.90
10175;DHT22;18221;38.704;0.152;2023-02-11T01:17:22;8.10;99.90
10175;DHT22;18221;38.704;0.152;2023-02-11T01:19:50;8.10;99.90
10175;DHT22;18221;38.704;0.152;2023-02-11T01:22:19;8.10;99.90
10175;DHT22;18221;38.704;0.152;2023-02-11T01:24:48;8.10;99.90
10175;DHT22;18221;38.704;0.152;2023-02-11T01:27:16;8.10;99.90
10175;DHT22;18221;38.704;0.152;2023-02-11T01:29:45;8.10;99.90
10175;DHT22;18221;38.704;0.152;2023-02-11T01:32:13;8.10;99.90
10175;DHT22;18221;38.704;0.152;2023-02-11T01:34:41;8.10;99.90
10175;DHT22;18221;38.704;0.152;2023-02-11T01:37:10;8.10;99.90
10175;DHT22;18221;38.704;0.152;2023-02-11T01:39:38;8.20;99.90
10175;DHT22;18221;38.704;0.152;2023-02-11T01:42:10;8.20;99.90
10175;DHT22;18221;38.704;0.152;2023-02-11T01:44:42;8.20;99.90
10175;DHT22;18221;38.704;0.152;2023-02-11T01:47:11;8.30;99.90
10175;DHT22;18221;38.704;0.152;2023-02-11T01:49:41;8.20;99.90
10175;DHT22;18221;38.704;0.152;2023-02-11T01:52:15;8.20;99.90
10175;DHT22;18221;38.704;0.152;2023-02-11T01:54:49;8.20;99.90
10175;DHT22;18221;38.704;0.152;2023-02-11T01:57:41;8.20;99.90
10175;DHT22;18221;38.704;0.152;2023-02-11T02:00:17;8.20;99.90
10175;DHT22;18221;38.704;0.152;2023-02-11T02:02:53;8.50;99.90
10175;DHT22;18221;38.704;0.152;2023-02-11T02:05:29;8.20;99.90
10175;DHT22;18221;38.704;0.152;2023-02-11T02:08:05;8.20;99.90
10175;DHT22;18221;38.704;0.152;2023-02-11T02:10:41;8.10;99.90
10175;DHT22;18221;38.704;0.152;2023-02-11T02:13:14;8.20;99.90
10175;DHT22;18221;38.704;0.152;2023-02-11T02:15:46;8.20;99.90
10175;DHT22;18221;38.704;0.152;2023-02-11T02:18:31;8.20;99.90
10175;DHT22;18221;38.704;0.152;2023-02-11T02:21:46;8.20;99.90
10175;DHT22;18221;38.704;0.152;2023-02-11T02:24:57;8.20;99.90
10175;DHT22;18221;38.704;0.152;2023-02-11T02:27:49;8.20;99.90
10175;DHT22;18221;38.704;0.152;2023-02-11T02:33:51;8.10;99.90
10175;DHT22;18221;38.704;0.152;2023-02-11T02:36:30;8.00;99.90
10175;DHT22;18221;38.704;0.152;2023-02-11T02:39:08;8.00;99.90
10175;DHT22;18221;38.704;0.152;2023-02-11T02:41:42;8.00;99.90
10175;DHT22;18221;38.704;0.152;2023-02-11T02:44:12;7.90;99.90
10175;DHT22;18221;38.704;0.152;2023-02-11T02:46:40;7.90;99.90
10175;DHT22;18221;38.704;0.152;2023-02-11T02:49:13;7.90;99.90
10175;DHT22;18221;38.704;0.152;2023-02-11T02:55:07;7.80;99.90
10175;DHT22;18221;38.704;0.152;2023-02-11T02:57:58;7.80;99.90
10175;DHT22;18221;38.704;0.152;2023-02-11T03:01:07;7.80;99.90
10175;DHT22;18221;38.704;0.152;2023-02-11T03:03:44;7.70;99.90
10175;DHT22;18221;38.704;0.152;2023-02-11T03:06:24;7.70;99.90
10175;DHT22;18221;38.704;0.152;2023-02-11T03:09:02;7.60;99.90
10175;DHT22;18221;38.704;0.152;2023-02-11T03:11:35;7.80;99.90
10175;DHT22;18221;38.704;0.152;2023-02-11T03:14:07;7.70;99.90
10175;DHT22;18221;38.704;0.152;2023-02-11T03:16:38;7.70;99.90
10175;DHT22;18221;38.704;0.152;2023-02-11T03:19:12;7.70;99.90
10175;DHT22;18221;38.704;0.152;2023-02-11T03:21:46;7.60;99.90
10175;DHT22;18221;38.704;0.152;2023-02-11T03:24:20;7.60;99.90
10175;DHT22;18221;38.704;0.152;2023-02-11T03:26:54;7.60;99.90
10175;DHT22;18221;38.704;0.152;2023-02-11T03:29:30;7.60;99.90
10175;DHT22;18221;38.704;0.152;2023-02-11T03:32:06;7.50;99.90
10175;DHT22;18221;38.704;0.152;2023-02-11T03:34:44;7.60;99.90
10175;DHT22;18221;38.704;0.152;2023-02-11T03:37:20;7.60;99.90
10175;DHT22;18221;38.704;0.152;2023-02-11T03:39:58;7.50;99.90
10175;DHT22;18221;38.704;0.152;2023-02-11T03:42:33;7.50;99.90
10175;DHT22;18221;38.704;0.152;2023-02-11T03:45:10;7.50;99.90
10175;DHT22;18221;38.704;0.152;2023-02-11T03:47:44;7.50;99.90
10175;DHT22;18221;38.704;0.152;2023-02-11T03:50:16;7.60;99.90
10175;DHT22;18221;38.704;0.152;2023-02-11T03:52:49;7.50;99.90
10175;DHT22;18221;38.704;0.152;2023-02-11T03:55:19;7.50;99.90
10175;DHT22;18221;38.704;0.152;2023-02-11T03:57:51;7.50;99.90
10175;DHT22;18221;38.704;0.152;2023-02-11T04:00:19;7.50;99.90
10175;DHT22;18221;38.704;0.152;2023-02-11T04:02:47;7.50;99.90
10175;DHT22;18221;38.704;0.152;2023-02-11T04:05:15;7.50;99.90
10175;DHT22;18221;38.704;0.152;2023-02-11T04:07:44;7.60;99.90
10175;DHT22;18221;38.704;0.152;2023-02-11T04:10:14;7.50;99.90
10175;DHT22;18221;38.704;0.152;2023-02-11T04:12:42;7.50;99.90
10175;DHT22;18221;38.704;0.152;2023-02-11T04:15:10;7.50;99.90
10175;DHT22;18221;38.704;0.152;2023-02-11T04:17:38;7.50;99.90
10175;DHT22;18221;38.704;0.152;2023-02-11T04:20:09;7.40;99.90
10175;DHT22;18221;38.704;0.152;2023-02-11T04:22:38;7.40;99.90
10175;DHT22;18221;38.704;0.152;2023-02-11T04:25:07;7.40;99.90
10175;DHT22;18221;38.704;0.152;2023-02-11T04:27:37;7.40;99.90
10175;DHT22;18221;38.704;0.152;2023-02-11T04:30:08;7.40;99.90
10175;DHT22;18221;38.704;0.152;2023-02-11T04:32:37;7.40;99.90
10175;DHT22;18221;38.704;0.152;2023-02-11T04:35:06;7.40;99.90
10175;DHT22;18221;38.704;0.152;2023-02-11T04:37:34;7.50;99.90
10175;DHT22;18221;38.704;0.152;2023-02-11T04:40:03;7.40;99.90
10175;DHT22;18221;38.704;0.152;2023-02-11T04:42:32;7.40;99.90
10175;DHT22;18221;38.704;0.152;2023-02-11T04:45:02;7.40;99.90
10175;DHT22;18221;38.704;0.152;2023-02-11T04:47:33;7.40;99.90
10175;DHT22;18221;38.704;0.152;2023-02-11T04:50:02;7.40;99.90
10175;DHT22;18221;38.704;0.152;2023-02-11T04:52:31;7.40;99.90
10175;DHT22;18221;38.704;0.152;2023-02-11T04:54:59;7.40;99.90
10175;DHT22;18221;38.704;0.152;2023-02-11T04:57:28;7.40;99.90
10175;DHT22;18221;38.704;0.152;2023-02-11T04:59:56;7.40;99.90
10175;DHT22;18221;38.704;0.152;2023-02-11T05:02:26;7.40;99.90
10175;DHT22;18221;38.704;0.152;2023-02-11T05:04:54;7.40;99.90
10175;DHT22;18221;38.704;0.152;2023-02-11T05:07:23;7.40;99.90
10175;DHT22;18221;38.704;0.152;2023-02-11T05:09:51;7.40;99.90
10175;DHT22;18221;38.704;0.152;2023-02-11T05:12:19;7.40;99.90
10175;DHT22;18221;38.704;0.152;2023-02-11T05:14:48;7.40;99.90
10175;DHT22;18221;38.704;0.152;2023-02-11T05:17:16;7.40;99.90
10175;DHT22;18221;38.704;0.152;2023-02-11T05:19:46;7.40;99.90
10175;DHT22;18221;38.704;0.152;2023-02-11T05:22:14;7.40;99.90
10175;DHT22;18221;38.704;0.152;2023-02-11T05:24:43;7.40;99.90
10175;DHT22;18221;38.704;0.152;2023-02-11T05:27:11;7.30;99.90
10175;DHT22;18221;38.704;0.152;2023-02-11T05:29:39;7.30;99.90
10175;DHT22;18221;38.704;0.152;2023-02-11T05:32:08;7.40;99.90
10175;DHT22;18221;38.704;0.152;2023-02-11T05:34:37;7.30;99.90
10175;DHT22;18221;38.704;0.152;2023-02-11T05:37:06;7.30;99.90
10175;DHT22;18221;38.704;0.152;2023-02-11T05:39:35;7.30;99.90
10175;DHT22;18221;38.704;0.152;2023-02-11T05:42:03;7.20;99.90
10175;DHT22;18221;38.704;0.152;2023-02-11T05:44:32;7.20;99.90
10175;DHT22;18221;38.704;0.152;2023-02-11T05:47:01;7.20;99.90
10175;DHT22;18221;38.704;0.152;2023-02-11T05:49:29;7.20;99.90
10175;DHT22;18221;38.704;0.152;2023-02-11T05:51:57;7.20;99.90
10175;DHT22;18221;38.704;0.152;2023-02-11T05:54:27;7.20;99.90
10175;DHT22;18221;38.704;0.152;2023-02-11T05:56:55;7.20;99.90
10175;DHT22;18221;38.704;0.152;2023-02-11T05:59:23;7.10;99.90
10175;DHT22;18221;38.704;0.152;2023-02-11T06:01:52;7.10;99.90
10175;DHT22;18221;38.704;0.152;2023-02-11T06:04:20;7.10;99.90
10175;DHT22;18221;38.704;0.152;2023-02-11T06:06:48;7.10;99.90
10175;DHT22;18221;38.704;0.152;2023-02-11T06:09:17;7.10;99.90
10175;DHT22;18221;38.704;0.152;2023-02-11T06:11:46;7.00;99.90
10175;DHT22;18221;38.704;0.152;2023-02-11T06:14:14;7.10;99.90
10175;DHT22;18221;38.704;0.152;2023-02-11T06:16:43;7.00;99.90
10175;DHT22;18221;38.704;0.152;2023-02-11T06:19:11;7.00;99.90
10175;DHT22;18221;38.704;0.152;2023-02-11T06:21:39;7.00;99.90
10175;DHT22;18221;38.704;0.152;2023-02-11T06:24:08;7.00;99.90
10175;DHT22;18221;38.704;0.152;2023-02-11T06:26:36;7.00;99.90
10175;DHT22;18221;38.704;0.152;2023-02-11T06:29:06;6.90;99.90
10175;DHT22;18221;38.704;0.152;2023-02-11T06:31:36;7.00;99.90
10175;DHT22;18221;38.704;0.152;2023-02-11T06:34:05;7.00;99.90
10175;DHT22;18221;38.704;0.152;2023-02-11T06:36:34;6.90;99.90
10175;DHT22;18221;38.704;0.152;2023-02-11T06:39:04;7.00;99.90
10175;DHT22;18221;38.704;0.152;2023-02-11T06:41:33;6.90;99.90
10175;DHT22;18221;38.704;0.152;2023-02-11T06:44:02;6.90;99.90
10175;DHT22;18221;38.704;0.152;2023-02-11T06:46:33;6.90;99.90
10175;DHT22;18221;38.704;0.152;2023-02-11T06:49:01;6.90;99.90
10175;DHT22;18221;38.704;0.152;2023-02-11T06:51:30;6.90;99.90
10175;DHT22;18221;38.704;0.152;2023-02-11T06:53:58;6.90;99.90
10175;DHT22;18221;38.704;0.152;2023-02-11T06:56:26;6.90;99.90
10175;DHT22;18221;38.704;0.152;2023-02-11T06:58:55;6.90;99.90
10175;DHT22;18221;38.704;0.152;2023-02-11T07:01:26;6.90;99.90
10175;DHT22;18221;38.704;0.152;2023-02-11T07:03:55;6.90;99.90
10175;DHT22;18221;38.704;0.152;2023-02-11T07:06:25;6.90;99.90
10175;DHT22;18221;38.704;0.152;2023-02-11T07:08:54;6.30;99.90
10175;DHT22;18221;38.704;0.152;2023-02-11T07:11:24;6.90;99.90
10175;DHT22;18221;38.704;0.152;2023-02-11T07:13:55;6.90;99.90
10175;DHT22;18221;38.704;0.152;2023-02-11T07:16:27;6.90;99.90
10175;DHT22;18221;38.704;0.152;2023-02-11T07:18:56;6.90;99.90
10175;DHT22;18221;38.704;0.152;2023-02-11T07:21:24;6.90;99.90
10175;DHT22;18221;38.704;0.152;2023-02-11T07:23:52;7.00;99.90
10175;DHT22;18221;38.704;0.152;2023-02-11T07:26:22;6.90;99.90
10175;DHT22;18221;38.704;0.152;2023-02-11T07:28:52;7.00;99.90
10175;DHT22;18221;38.704;0.152;2023-02-11T07:31:23;7.00;99.90
10175;DHT22;18221;38.704;0.152;2023-02-11T07:33:56;7.30;99.90
10175;DHT22;18221;38.704;0.152;2023-02-11T07:36:27;7.10;99.90
10175;DHT22;18221;38.704;0.152;2023-02-11T07:38:56;7.10;99.90
10175;DHT22;18221;38.704;0.152;2023-02-11T07:41:26;7.20;99.90
10175;DHT22;18221;38.704;0.152;2023-02-11T07:43:54;7.20;99.90
10175;DHT22;18221;38.704;0.152;2023-02-11T07:46:24;7.20;99.90
10175;DHT22;18221;38.704;0.152;2023-02-11T07:48:57;7.50;99.90
10175;DHT22;18221;38.704;0.152;2023-02-11T07:51:27;7.30;99.90
10175;DHT22;18221;38.704;0.152;2023-02-11T07:53:58;7.40;99.90
10175;DHT22;18221;38.704;0.152;2023-02-11T07:56:27;8.00;99.90
10175;DHT22;18221;38.704;0.152;2023-02-11T07:59:01;7.40;99.90
10175;DHT22;18221;38.704;0.152;2023-02-11T08:01:30;7.50;99.90
10175;DHT22;18221;38.704;0.152;2023-02-11T08:04:02;7.50;99.90
10175;DHT22;18221;38.704;0.152;2023-02-11T08:06:33;7.50;99.90
10175;DHT22;18221;38.704;0.152;2023-02-11T08:09:07;8.40;99.90
10175;DHT22;18221;38.704;0.152;2023-02-11T08:11:39;7.60;99.90
10175;DHT22;18221;38.704;0.152;2023-02-11T08:14:08;7.60;99.90
10175;DHT22;18221;38.704;0.152;2023-02-11T08:16:37;7.60;99.90
10175;DHT22;18221;38.704;0.152;2023-02-11T08:19:12;8.00;99.90
10175;DHT22;18221;38.704;0.152;2023-02-11T08:21:42;7.70;99.90
10175;DHT22;18221;38.704;0.152;2023-02-11T08:24:11;8.40;99.90
10175;DHT22;18221;38.704;0.152;2023-02-11T08:26:41;7.70;99.90
10175;DHT22;18221;38.704;0.152;2023-02-11T08:29:13;7.70;99.90
10175;DHT22;18221;38.704;0.152;2023-02-11T08:31:45;7.90;99.90
10175;DHT22;18221;38.704;0.152;2023-02-11T08:34:15;7.70;99.90
10175;DHT22;18221;38.704;0.152;2023-02-11T08:36:45;7.90;99.90
10175;DHT22;18221;38.704;0.152;2023-02-11T08:39:17;7.90;99.90
10175;DHT22;18221;38.704;0.152;2023-02-11T08:41:49;8.30;99.90
10175;DHT22;18221;38.704;0.152;2023-02-11T08:44:19;8.40;99.90
10175;DHT22;18221;38.704;0.152;2023-02-11T08:46:49;8.40;99.90
10175;DHT22;18221;38.704;0.152;2023-02-11T08:49:20;8.00;99.90
10175;DHT22;18221;38.704;0.152;2023-02-11T08:51:49;8.10;99.90
10175;DHT22;18221;38.704;0.152;2023-02-11T08:54:20;8.10;99.90
10175;DHT22;18221;38.704;0.152;2023-02-11T08:56:50;8.30;99.90
10175;DHT22;18221;38.704;0.152;2023-02-11T08:59:19;8.30;99.90
10175;DHT22;18221;38.704;0.152;2023-02-11T09:01:48;8.20;99.90
10175;DHT22;18221;38.704;0.152;2023-02-11T09:04:18;8.20;99.90
10175;DHT22;18221;38.704;0.152;2023-02-11T09:06:47;8.40;99.90
10175;DHT22;18221;38.704;0.152;2023-02-11T09:09:16;8.30;99.90
10175;DHT22;18221;38.704;0.152;2023-02-11T09:11:45;8.30;99.90
10175;DHT22;18221;38.704;0.152;2023-02-11T09:14:18;8.20;99.90
10175;DHT22;18221;38.704;0.152;2023-02-11T09:16:48;8.20;99.90
10175;DHT22;18221;38.704;0.152;2023-02-11T09:19:20;8.20;99.90
10175;DHT22;18221;38.704;0.152;2023-02-11T09:21:49;8.10;99.90
10175;DHT22;18221;38.704;0.152;2023-02-11T09:24:17;8.00;99.90
10175;DHT22;18221;38.704;0.152;2023-02-11T09:26:46;8.00;99.90
10175;DHT22;18221;38.704;0.152;2023-02-11T09:29:14;8.00;99.90
10175;DHT22;18221;38.704;0.152;2023-02-11T09:31:42;8.00;99.90
10175;DHT22;18221;38.704;0.152;2023-02-11T09:34:11;8.10;99.90
10175;DHT22;18221;38.704;0.152;2023-02-11T09:36:43;8.30;99.90
10175;DHT22;18221;38.704;0.152;2023-02-11T09:39:14;8.20;99.90
10175;DHT22;18221;38.704;0.152;2023-02-11T09:42:09;8.30;99.90
10175;DHT22;18221;38.704;0.152;2023-02-11T09:45:10;8.30;99.90
10175;DHT22;18221;38.704;0.152;2023-02-11T09:47:47;8.40;99.90
10175;DHT22;18221;38.704;0.152;2023-02-11T09:50:24;8.40;99.90
10175;DHT22;18221;38.704;0.152;2023-02-11T09:53:00;8.40;99.90
10175;DHT22;18221;38.704;0.152;2023-02-11T09:55:33;8.40;99.90
10175;DHT22;18221;38.704;0.152;2023-02-11T09:58:10;8.80;99.90
10175;DHT22;18221;38.704;0.152;2023-02-11T10:00:43;8.70;99.90
10175;DHT22;18221;38.704;0.152;2023-02-11T10:06:40;9.10;99.90
10175;DHT22;18221;38.704;0.152;2023-02-11T10:09:42;9.10;99.90
10175;DHT22;18221;38.704;0.152;2023-02-11T10:12:42;9.00;99.90
10175;DHT22;18221;38.704;0.152;2023-02-11T10:15:27;9.00;99.90
10175;DHT22;18221;38.704;0.152;2023-02-11T10:21:18;9.10;99.90
10175;DHT22;18221;38.704;0.152;2023-02-11T10:23:58;9.20;99.90
10175;DHT22;18221;38.704;0.152;2023-02-11T10:26:31;9.30;99.90
10175;DHT22;18221;38.704;0.152;2023-02-11T10:29:10;9.30;99.90
10175;DHT22;18221;38.704;0.152;2023-02-11T10:31:50;9.40;99.90
10175;DHT22;18221;38.704;0.152;2023-02-11T10:34:18;9.50;99.90
10175;DHT22;18221;38.704;0.152;2023-02-11T10:36:47;9.60;99.90
10175;DHT22;18221;38.704;0.152;2023-02-11T10:39:17;9.70;99.90
10175;DHT22;18221;38.704;0.152;2023-02-11T10:41:51;9.80;99.90
10175;DHT22;18221;38.704;0.152;2023-02-11T10:44:26;9.90;99.90
10175;DHT22;18221;38.704;0.152;2023-02-11T10:47:03;10.40;99.90
10175;DHT22;18221;38.704;0.152;2023-02-11T10:49:39;10.40;99.90
10175;DHT22;18221;38.704;0.152;2023-02-11T10:52:20;10.00;99.90
10175;DHT22;18221;38.704;0.152;2023-02-11T10:54:59;8.90;99.90
10175;DHT22;18221;38.704;0.152;2023-02-11T10:57:36;10.10;99.90
10175;DHT22;18221;38.704;0.152;2023-02-11T11:00:22;10.30;99.90
10175;DHT22;18221;38.704;0.152;2023-02-11T11:03:00;10.10;99.90
10175;DHT22;18221;38.704;0.152;2023-02-11T11:05:33;10.30;99.90
10175;DHT22;18221;38.704;0.152;2023-02-11T11:08:05;10.30;99.90
10175;DHT22;18221;38.704;0.152;2023-02-11T11:10:39;10.40;99.90
10175;DHT22;18221;38.704;0.152;2023-02-11T11:13:27;11.10;99.90
10175;DHT22;18221;38.704;0.152;2023-02-11T11:16:18;10.60;99.90
10175;DHT22;18221;38.704;0.152;2023-02-11T11:18:51;10.30;99.90
10175;DHT22;18221;38.704;0.152;2023-02-11T11:21:24;10.30;99.90
10175;DHT22;18221;38.704;0.152;2023-02-11T11:23:59;10.20;99.90
10175;DHT22;18221;38.704;0.152;2023-02-11T11:26:40;10.30;99.90
10175;DHT22;18221;38.704;0.152;2023-02-11T11:29:15;10.40;99.90
10175;DHT22;18221;38.704;0.152;2023-02-11T11:31:51;11.40;99.90
10175;DHT22;18221;38.704;0.152;2023-02-11T11:34:27;9.50;99.90
10175;DHT22;18221;38.704;0.152;2023-02-11T11:36:58;10.10;99.90
10175;DHT22;18221;38.704;0.152;2023-02-11T11:39:30;10.90;99.90
10175;DHT22;18221;38.704;0.152;2023-02-11T11:42:03;10.80;99.90
10175;DHT22;18221;38.704;0.152;2023-02-11T11:44:56;10.80;99.90
10175;DHT22;18221;38.704;0.152;2023-02-11T11:47:32;10.70;99.90
10175;DHT22;18221;38.704;0.152;2023-02-11T11:50:25;11.30;99.90
10175;DHT22;18221;38.704;0.152;2023-02-11T11:53:02;10.80;99.90
10175;DHT22;18221;38.704;0.152;2023-02-11T11:55:37;11.00;99.90
10175;DHT22;18221;38.704;0.152;2023-02-11T11:58:14;11.10;99.90
10175;DHT22;18221;38.704;0.152;2023-02-11T12:00:55;11.10;99.90
10175;DHT22;18221;38.704;0.152;2023-02-11T12:06:59;11.40;99.90
10175;DHT22;18221;38.704;0.152;2023-02-11T12:09:43;11.50;99.90
10175;DHT22;18221;38.704;0.152;2023-02-11T12:12:30;11.70;99.90
10175;DHT22;18221;38.704;0.152;2023-02-11T12:15:24;11.30;99.90
10175;DHT22;18221;38.704;0.152;2023-02-11T12:18:16;11.50;99.90
10175;DHT22;18221;38.704;0.152;2023-02-11T12:21:17;11.70;99.90
10175;DHT22;18221;38.704;0.152;2023-02-11T12:24:12;11.60;99.90
10175;DHT22;18221;38.704;0.152;2023-02-11T12:27:01;11.70;99.90
10175;DHT22;18221;38.704;0.152;2023-02-11T12:29:42;11.60;99.90
10175;DHT22;18221;38.704;0.152;2023-02-11T12:32:28;11.90;99.90
10175;DHT22;18221;38.704;0.152;2023-02-11T12:35:23;11.60;99.90
10175;DHT22;18221;38.704;0.152;2023-02-11T12:38:39;11.70;99.90
10175;DHT22;18221;38.704;0.152;2023-02-11T12:41:34;11.50;99.90
10175;DHT22;18221;38.704;0.152;2023-02-11T12:44:44;11.70;99.90
10175;DHT22;18221;38.704;0.152;2023-02-11T12:47:29;11.60;99.90
10175;DHT22;18221;38.704;0.152;2023-02-11T12:50:19;11.50;99.90
10175;DHT22;18221;38.704;0.152;2023-02-11T12:53:16;11.60;99.90
10175;DHT22;18221;38.704;0.152;2023-02-11T12:55:57;11.60;99.90
10175;DHT22;18221;38.704;0.152;2023-02-11T12:58:33;11.90;99.90
10175;DHT22;18221;38.704;0.152;2023-02-11T13:01:05;12.10;99.90
10175;DHT22;18221;38.704;0.152;2023-02-11T13:03:42;11.90;99.90
10175;DHT22;18221;38.704;0.152;2023-02-11T13:06:19;11.80;99.90
10175;DHT22;18221;38.704;0.152;2023-02-11T13:08:57;11.70;99.90
10175;DHT22;18221;38.704;0.152;2023-02-11T13:11:33;11.70;99.90
10175;DHT22;18221;38.704;0.152;2023-02-11T13:14:13;11.80;99.90
10175;DHT22;18221;38.704;0.152;2023-02-11T13:16:50;11.80;99.90
10175;DHT22;18221;38.704;0.152;2023-02-11T13:19:25;11.90;99.90
10175;DHT22;18221;38.704;0.152;2023-02-11T13:22:13;12.00;99.90
10175;DHT22;18221;38.704;0.152;2023-02-11T13:24:49;11.90;99.90
10175;DHT22;18221;38.704;0.152;2023-02-11T13:27:35;11.90;99.90
10175;DHT22;18221;38.704;0.152;2023-02-11T13:30:23;11.80;99.90
10175;DHT22;18221;38.704;0.152;2023-02-11T13:33:18;11.90;99.90
10175;DHT22;18221;38.704;0.152;2023-02-11T13:36:19;12.10;99.90
10175;DHT22;18221;38.704;0.152;2023-02-11T13:38:57;12.10;99.90
10175;DHT22;18221;38.704;0.152;2023-02-11T13:41:34;12.20;99.90
10175;DHT22;18221;38.704;0.152;2023-02-11T13:44:22;12.30;99.90
10175;DHT22;18221;38.704;0.152;2023-02-11T13:46:59;12.20;99.90
10175;DHT22;18221;38.704;0.152;2023-02-11T13:49:33;12.00;99.90
10175;DHT22;18221;38.704;0.152;2023-02-11T13:52:15;11.90;99.90
10175;DHT22;18221;38.704;0.152;2023-02-11T13:54:51;11.80;99.90
10175;DHT22;18221;38.704;0.152;2023-02-11T13:57:33;11.90;99.90
10175;DHT22;18221;38.704;0.152;2023-02-11T14:03:27;11.80;99.90
10175;DHT22;18221;38.704;0.152;2023-02-11T14:06:28;12.10;99.90
10175;DHT22;18221;38.704;0.152;2023-02-11T14:09:42;12.30;99.90
10175;DHT22;18221;38.704;0.152;2023-02-11T14:12:32;12.30;99.90
10175;DHT22;18221;38.704;0.152;2023-02-11T14:15:26;12.30;99.90
10175;DHT22;18221;38.704;0.152;2023-02-11T14:17:54;12.30;99.90
10175;DHT22;18221;38.704;0.152;2023-02-11T14:20:36;12.30;99.90
10175;DHT22;18221;38.704;0.152;2023-02-11T14:23:22;12.30;99.90
10175;DHT22;18221;38.704;0.152;2023-02-11T14:26:00;12.30;99.90
10175;DHT22;18221;38.704;0.152;2023-02-11T14:28:41;12.50;99.90
10175;DHT22;18221;38.704;0.152;2023-02-11T14:31:13;12.40;99.90
10175;DHT22;18221;38.704;0.152;2023-02-11T14:34:06;12.40;99.90
10175;DHT22;18221;38.704;0.152;2023-02-11T14:39:51;12.50;99.90
10175;DHT22;18221;38.704;0.152;2023-02-11T14:42:29;12.60;99.90
10175;DHT22;18221;38.704;0.152;2023-02-11T14:45:03;12.50;99.90
10175;DHT22;18221;38.704;0.152;2023-02-11T14:47:39;12.30;99.90
10175;DHT22;18221;38.704;0.152;2023-02-11T14:50:16;12.20;99.90
10175;DHT22;18221;38.704;0.152;2023-02-11T14:52:53;12.20;99.90
10175;DHT22;18221;38.704;0.152;2023-02-11T14:55:29;12.20;99.90
10175;DHT22;18221;38.704;0.152;2023-02-11T14:58:15;12.20;99.90
10175;DHT22;18221;38.704;0.152;2023-02-11T15:00:51;12.20;99.90
10175;DHT22;18221;38.704;0.152;2023-02-11T15:03:30;12.30;99.90
10175;DHT22;18221;38.704;0.152;2023-02-11T15:06:02;12.30;99.90
10175;DHT22;18221;38.704;0.152;2023-02-11T15:08:35;12.20;99.90
10175;DHT22;18221;38.704;0.152;2023-02-11T15:11:11;12.10;99.90
10175;DHT22;18221;38.704;0.152;2023-02-11T15:13:42;12.10;99.90
10175;DHT22;18221;38.704;0.152;2023-02-11T15:16:22;12.20;99.90
10175;DHT22;18221;38.704;0.152;2023-02-11T15:18:56;12.20;99.90
10175;DHT22;18221;38.704;0.152;2023-02-11T15:21:31;12.10;99.90
10175;DHT22;18221;38.704;0.152;2023-02-11T15:24:03;12.10;99.90
10175;DHT22;18221;38.704;0.152;2023-02-11T15:26:33;12.20;99.90
10175;DHT22;18221;38.704;0.152;2023-02-11T15:29:01;12.20;99.90
10175;DHT22;18221;38.704;0.152;2023-02-11T15:31:31;11.90;99.90
10175;DHT22;18221;38.704;0.152;2023-02-11T15:34:06;11.80;99.90
10175;DHT22;18221;38.704;0.152;2023-02-11T15:36:35;11.70;99.90
10175;DHT22;18221;38.704;0.152;2023-02-11T15:39:28;11.60;99.90
10175;DHT22;18221;38.704;0.152;2023-02-11T15:42:19;11.40;99.90
10175;DHT22;18221;38.704;0.152;2023-02-11T15:45:08;11.30;99.90
10175;DHT22;18221;38.704;0.152;2023-02-11T15:47:52;11.20;99.90
10175;DHT22;18221;38.704;0.152;2023-02-11T15:50:25;11.00;99.90
10175;DHT22;18221;38.704;0.152;2023-02-11T15:52:56;11.10;99.90
10175;DHT22;18221;38.704;0.152;2023-02-11T15:55:29;11.00;99.90
10175;DHT22;18221;38.704;0.152;2023-02-11T15:58:00;11.00;99.90
10175;DHT22;18221;38.704;0.152;2023-02-11T16:00:33;11.00;99.90
10175;DHT22;18221;38.704;0.152;2023-02-11T16:03:06;10.90;99.90
10175;DHT22;18221;38.704;0.152;2023-02-11T16:05:45;10.90;99.90
10175;DHT22;18221;38.704;0.152;2023-02-11T16:08:21;10.80;99.90
10175;DHT22;18221;38.704;0.152;2023-02-11T16:10:55;10.80;99.90
10175;DHT22;18221;38.704;0.152;2023-02-11T16:13:25;10.80;99.90
10175;DHT22;18221;38.704;0.152;2023-02-11T16:15:56;10.80;99.90
10175;DHT22;18221;38.704;0.152;2023-02-11T16:18:36;10.70;99.90
10175;DHT22;18221;38.704;0.152;2023-02-11T16:21:11;10.70;99.90
10175;DHT22;18221;38.704;0.152;2023-02-11T16:23:47;10.70;99.90
10175;DHT22;18221;38.704;0.152;2023-02-11T16:26:27;10.70;99.90
10175;DHT22;18221;38.704;0.152;2023-02-11T16:29:06;10.60;99.90
10175;DHT22;18221;38.704;0.152;2023-02-11T16:31:40;10.60;99.90
10175;DHT22;18221;38.704;0.152;2023-02-11T16:34:18;10.60;99.90
10175;DHT22;18221;38.704;0.152;2023-02-11T16:36:48;10.60;99.90
10175;DHT22;18221;38.704;0.152;2023-02-11T16:39:19;10.60;99.90
10175;DHT22;18221;38.704;0.152;2023-02-11T16:41:48;10.60;99.90
10175;DHT22;18221;38.704;0.152;2023-02-11T16:44:17;10.60;99.90
10175;DHT22;18221;38.704;0.152;2023-02-11T16:46:46;10.50;99.90
10175;DHT22;18221;38.704;0.152;2023-02-11T16:49:20;10.50;99.90
10175;DHT22;18221;38.704;0.152;2023-02-11T16:51:52;10.60;99.90
10175;DHT22;18221;38.704;0.152;2023-02-11T16:54:23;10.50;99.90
10175;DHT22;18221;38.704;0.152;2023-02-11T16:56:51;10.50;99.90
10175;DHT22;18221;38.704;0.152;2023-02-11T16:59:19;10.50;99.90
10175;DHT22;18221;38.704;0.152;2023-02-11T17:01:49;10.40;99.90
10175;DHT22;18221;38.704;0.152;2023-02-11T17:04:22;10.40;99.90